Helvetia, Oregon
Current Conditions -  °F | °C
As of 9:53 PM on Wednesday 22 Oct 2014 (Local Time) from KHIO Reporting Station
Overcast Overcast  
Wind Chill: 55°   Ceiling: 8000
Heat Index: 55°   Visibility: 10mi
Dew Point: 51°   Wind: 9mph
Humidity: 86%   Direction: 160°SSE
Pressure: 29.75"   Gusts: NA
Location:  45.6165°N, 122.954°W
Report Text: KHIO 230453Z 16008KT 10SM BKN080 OVC090 13/11 A2975 RMK AO2 RAE39 SLP073 P0001 T01280106
Loading
Personal Weather Stations






























Interactive Weather Map
Tropical Storm Tracking
New forecast layout! Learn more

10-Day Weather Forecast

Advertisements
Track Severe Weather on mobile